Time,TemperatureF,DewpointF,PressureIn,WindDirection,WindDirectionDegrees,WindSpeedMPH,WindSpeedGustMPH,Humidity,HourlyPrecipIn,Conditions,Clouds,dailyrainin,SoftwareType,DateUTC
2013-03-19 00:08:00,34.3,32.0,29.66,WNW,295,1.0,-999.0,90,-99.99,,,0.00,weatherlink.com 1.10,2013-03-19 04:08:00,
2013-03-19 00:23:00,34.4,32.0,29.66,WSW,252,7.0,-999.0,89,-99.99,,,0.00,weatherlink.com 1.10,2013-03-19 04:23:00,
2013-03-19 00:38:00,34.5,32.0,29.65,WNW,288,1.0,-999.0,89,-99.99,,,0.00,weatherlink.com 1.10,2013-03-19 04:38:00,
2013-03-19 00:53:00,34.3,31.0,29.65,SSW,204,12.0,-999.0,86,-99.99,,,0.00,weatherlink.com 1.10,2013-03-19 04:53:00,
2013-03-19 01:08:00,33.9,28.0,29.65,West,259,11.0,-999.0,79,-99.99,,,0.00,weatherlink.com 1.10,2013-03-19 05:08:00,
2013-03-19 01:23:00,33.3,27.0,29.66,WNW,300,4.0,-999.0,76,-99.99,,,0.00,weatherlink.com 1.10,2013-03-19 05:23:00,
2013-03-19 01:38:00,32.4,26.0,29.65,West,264,8.0,-999.0,76,-99.99,,,0.00,weatherlink.com 1.10,2013-03-19 05:38:00,
2013-03-19 01:53:00,31.9,26.0,29.66,WSW,255,11.0,-999.0,78,-99.99,,,0.00,weatherlink.com 1.10,2013-03-19 05:53:00,
2013-03-19 02:08:00,31.2,25.0,29.67,SW,232,4.0,-999.0,79,-99.99,,,0.00,weatherlink.com 1.10,2013-03-19 06:08:00,
2013-03-19 02:23:00,30.5,25.0,29.67,West,277,5.0,-999.0,79,-99.99,,,0.00,weatherlink.com 1.10,2013-03-19 06:23:00,
2013-03-19 02:38:00,30.1,24.0,29.68,WNW,288,4.0,-999.0,78,-99.99,,,0.00,weatherlink.com 1.10,2013-03-19 06:38:00,
2013-03-19 02:53:00,29.5,23.0,29.69,West,267,3.0,-999.0,76,-99.99,,,0.00,weatherlink.com 1.10,2013-03-19 06:53:00,
2013-03-19 03:08:00,29.0,23.0,29.70,SW,219,5.0,-999.0,78,-99.99,,,0.00,weatherlink.com 1.10,2013-03-19 07:08:00,
2013-03-19 03:23:00,28.2,22.0,29.70,West,259,4.0,-999.0,77,-99.99,,,0.00,weatherlink.com 1.10,2013-03-19 07:23:00,
2013-03-19 03:38:00,27.5,22.0,29.71,WSW,243,5.0,-999.0,78,-99.99,,,0.00,weatherlink.com 1.10,2013-03-19 07:38:00,
2013-03-19 03:53:00,27.3,21.0,29.71,West,263,4.0,-999.0,76,-99.99,,,0.00,weatherlink.com 1.10,2013-03-19 07:53:00,
2013-03-19 04:08:00,26.7,20.0,29.71,NNW,332,5.0,-999.0,76,-99.99,,,0.00,weatherlink.com 1.10,2013-03-19 08:08:00,
2013-03-19 04:23:00,26.5,20.0,29.72,NNW,330,1.0,-999.0,77,-99.99,,,0.00,weatherlink.com 1.10,2013-03-19 08:23:00,
2013-03-19 04:38:00,26.4,20.0,29.72,West,267,3.0,-999.0,75,-99.99,,,0.00,weatherlink.com 1.10,2013-03-19 08:38:00,
2013-03-19 04:53:00,26.4,19.0,29.72,West,274,4.0,-999.0,74,-99.99,,,0.00,weatherlink.com 1.10,2013-03-19 08:53:00,
2013-03-19 05:08:00,26.2,20.0,29.73,WSW,253,11.0,-999.0,77,-99.99,,,0.00,weatherlink.com 1.10,2013-03-19 09:08:00,
2013-03-19 05:23:00,25.6,18.0,29.73,WNW,302,3.0,-999.0,74,-99.99,,,0.00,weatherlink.com 1.10,2013-03-19 09:23:00,
2013-03-19 05:38:00,24.9,19.0,29.74,NW,310,5.0,-999.0,79,-99.99,,,0.00,weatherlink.com 1.10,2013-03-19 09:38:00,
2013-03-19 05:53:00,24.2,19.0,29.74,West,275,5.0,-999.0,80,-99.99,,,0.00,weatherlink.com 1.10,2013-03-19 09:53:00,
2013-03-19 06:08:00,24.2,18.0,29.74,West,278,6.0,-999.0,76,-99.99,,,0.00,weatherlink.com 1.10,2013-03-19 10:08:00,
2013-03-19 06:23:00,23.1,15.0,29.75,WSW,243,4.0,-999.0,71,-99.99,,,0.00,weatherlink.com 1.10,2013-03-19 10:23:00,
2013-03-19 06:38:00,-999.0,-99.9,29.76,North,-999,-999.0,-999.0,-999,-99.99,,,0.00,weatherlink.com 1.10,2013-03-19 10:38:00,
2013-03-19 06:53:00,-999.0,-99.9,29.77,North,-999,-999.0,-999.0,-999,-99.99,,,0.00,weatherlink.com 1.10,2013-03-19 10:53:00,
2013-03-19 07:08:00,-999.0,-99.9,29.77,North,-999,-999.0,-999.0,-999,-99.99,,,0.00,weatherlink.com 1.10,2013-03-19 11:08:00,
2013-03-19 07:23:00,-999.0,-99.9,29.78,North,-999,-999.0,-999.0,-999,-99.99,,,0.00,weatherlink.com 1.10,2013-03-19 11:23:00,
2013-03-19 07:38:00,-999.0,-99.9,29.78,North,-999,-999.0,-999.0,-999,-99.99,,,0.00,weatherlink.com 1.10,2013-03-19 11:38:00,
2013-03-19 07:53:00,-999.0,-99.9,29.78,North,-999,-999.0,-999.0,-999,-99.99,,,0.00,weatherlink.com 1.10,2013-03-19 11:53:00,
2013-03-19 08:08:00,-999.0,-99.9,29.78,North,-999,-999.0,-999.0,-999,-99.99,,,0.00,weatherlink.com 1.10,2013-03-19 12:08:00,
2013-03-19 08:23:00,-999.0,-99.9,29.78,North,-999,-999.0,-999.0,-999,-99.99,,,0.00,weatherlink.com 1.10,2013-03-19 12:23:00,
2013-03-19 08:38:00,-999.0,-99.9,29.78,North,-999,-999.0,-999.0,-999,-99.99,,,0.00,weatherlink.com 1.10,2013-03-19 12:38:00,
2013-03-19 08:53:00,22.7,15.0,29.78,WNW,302,2.0,-999.0,73,-99.99,,,0.00,weatherlink.com 1.10,2013-03-19 12:53:00,
2013-03-19 09:08:00,22.7,17.0,29.77,West,280,5.0,-999.0,77,-99.99,,,0.00,weatherlink.com 1.10,2013-03-19 13:08:00,
2013-03-19 09:23:00,22.4,18.0,29.77,WSW,252,5.0,-999.0,82,-99.99,,,0.00,weatherlink.com 1.10,2013-03-19 13:23:00,
2013-03-19 09:38:00,22.2,17.0,29.78,West,281,6.0,-999.0,79,-99.99,,,0.00,weatherlink.com 1.10,2013-03-19 13:38:00,
2013-03-19 09:53:00,22.1,16.0,29.79,SW,217,8.0,-999.0,76,-99.99,,,0.00,weatherlink.com 1.10,2013-03-19 13:53:00,
2013-03-19 10:08:00,23.1,16.0,29.79,WNW,298,6.0,-999.0,74,-99.99,,,0.00,weatherlink.com 1.10,2013-03-19 14:08:00,
2013-03-19 10:23:00,23.5,15.0,29.79,WNW,303,6.0,-999.0,70,-99.99,,,0.00,weatherlink.com 1.10,2013-03-19 14:23:00,
2013-03-19 10:38:00,23.8,14.0,29.79,WSW,253,7.0,-999.0,67,-99.99,,,0.00,weatherlink.com 1.10,2013-03-19 14:38:00,
2013-03-19 10:53:00,23.4,15.0,29.79,WNW,285,2.0,-999.0,69,-99.99,,,0.00,weatherlink.com 1.10,2013-03-19 14:53:00,
2013-03-19 11:08:00,23.2,15.0,29.80,WSW,239,8.0,-999.0,70,-99.99,,,0.00,weatherlink.com 1.10,2013-03-19 15:08:00,
2013-03-19 11:23:00,23.8,16.0,29.80,SW,225,8.0,-999.0,72,-99.99,,,0.00,weatherlink.com 1.10,2013-03-19 15:23:00,
2013-03-19 11:38:00,24.0,14.0,29.81,West,273,5.0,-999.0,67,-99.99,,,0.00,weatherlink.com 1.10,2013-03-19 15:38:00,
2013-03-19 11:53:00,23.6,16.0,29.82,West,273,7.0,-999.0,74,-99.99,,,0.00,weatherlink.com 1.10,2013-03-19 15:53:00,
2013-03-19 12:08:00,23.3,16.0,29.82,SW,233,6.0,-999.0,74,-99.99,,,0.00,weatherlink.com 1.10,2013-03-19 16:08:00,
2013-03-19 12:23:00,24.0,16.0,29.82,West,276,8.0,-999.0,72,-99.99,,,0.00,weatherlink.com 1.10,2013-03-19 16:23:00,
2013-03-19 12:38:00,24.2,15.0,29.82,NNW,328,10.0,-999.0,69,-99.99,,,0.00,weatherlink.com 1.10,2013-03-19 16:38:00,
2013-03-19 12:53:00,24.9,15.0,29.83,WNW,285,6.0,-999.0,67,-99.99,,,0.00,weatherlink.com 1.10,2013-03-19 16:53:00,
2013-03-19 13:08:00,24.6,17.0,29.84,West,266,9.0,-999.0,73,-99.99,,,0.00,weatherlink.com 1.10,2013-03-19 17:08:00,
2013-03-19 13:23:00,24.3,18.0,29.84,West,270,7.0,-999.0,76,-99.99,,,0.00,weatherlink.com 1.10,2013-03-19 17:23:00,
2013-03-19 13:38:00,25.3,17.0,29.83,WNW,291,7.0,-999.0,70,-99.99,,,0.00,weatherlink.com 1.10,2013-03-19 17:38:00,
2013-03-19 13:53:00,25.4,17.0,29.84,WSW,250,7.0,-999.0,71,-99.99,,,0.00,weatherlink.com 1.10,2013-03-19 17:53:00,
2013-03-19 14:08:00,25.5,18.0,29.85,WSW,252,9.0,-999.0,73,-99.99,,,0.00,weatherlink.com 1.10,2013-03-19 18:08:00,
2013-03-19 14:23:00,26.4,18.0,29.85,SW,225,11.0,-999.0,70,-99.99,,,0.00,weatherlink.com 1.10,2013-03-19 18:23:00,
2013-03-19 14:38:00,26.4,19.0,29.86,NW,315,4.0,-999.0,72,-99.99,,,0.00,weatherlink.com 1.10,2013-03-19 18:38:00,
2013-03-19 14:53:00,26.8,18.0,29.86,NW,318,6.0,-999.0,69,-99.99,,,0.00,weatherlink.com 1.10,2013-03-19 18:53:00,
2013-03-19 15:08:00,27.5,19.0,29.86,WNW,298,6.0,-999.0,69,-99.99,,,0.00,weatherlink.com 1.10,2013-03-19 19:08:00,
2013-03-19 15:23:00,27.0,18.0,29.86,WSW,257,8.0,-999.0,68,-99.99,,,0.00,weatherlink.com 1.10,2013-03-19 19:23:00,
2013-03-19 15:38:00,27.1,17.0,29.86,NW,314,6.0,-999.0,67,-99.99,,,0.00,weatherlink.com 1.10,2013-03-19 19:38:00,
2013-03-19 15:53:00,27.5,19.0,29.87,SW,218,5.0,-999.0,71,-99.99,,,0.00,weatherlink.com 1.10,2013-03-19 19:53:00,
2013-03-19 16:08:00,27.8,20.0,29.87,WNW,299,3.0,-999.0,73,-99.99,,,0.00,weatherlink.com 1.10,2013-03-19 20:08:00,
2013-03-19 16:23:00,28.1,19.0,29.87,WSW,245,5.0,-999.0,70,-99.99,,,0.00,weatherlink.com 1.10,2013-03-19 20:23:00,
2013-03-19 16:38:00,28.5,20.0,29.87,WNW,295,8.0,-999.0,70,-99.99,,,0.00,weatherlink.com 1.10,2013-03-19 20:38:00,
2013-03-19 16:53:00,28.9,20.0,29.87,West,281,4.0,-999.0,68,-99.99,,,0.00,weatherlink.com 1.10,2013-03-19 20:53:00,
2013-03-19 17:08:00,30.2,18.0,29.87,WSW,254,14.0,-999.0,61,-99.99,,,0.00,weatherlink.com 1.10,2013-03-19 21:08:00,
2013-03-19 17:23:00,30.9,18.0,29.88,West,261,11.0,-999.0,58,-99.99,,,0.00,weatherlink.com 1.10,2013-03-19 21:23:00,
2013-03-19 17:38:00,31.5,17.0,29.88,WNW,295,4.0,-999.0,56,-99.99,,,0.00,weatherlink.com 1.10,2013-03-19 21:38:00,
2013-03-19 17:53:00,30.9,18.0,29.89,NW,325,4.0,-999.0,59,-99.99,,,0.00,weatherlink.com 1.10,2013-03-19 21:53:00,
2013-03-19 18:08:00,30.8,18.0,29.89,NW,323,3.0,-999.0,59,-99.99,,,0.00,weatherlink.com 1.10,2013-03-19 22:08:00,
2013-03-19 18:23:00,30.8,18.0,29.90,WNW,285,2.0,-999.0,59,-99.99,,,0.00,weatherlink.com 1.10,2013-03-19 22:23:00,
2013-03-19 18:38:00,30.8,18.0,29.90,WNW,299,5.0,-999.0,60,-99.99,,,0.00,weatherlink.com 1.10,2013-03-19 22:38:00,
2013-03-19 18:53:00,30.7,18.0,29.91,WNW,297,4.0,-999.0,59,-99.99,,,0.00,weatherlink.com 1.10,2013-03-19 22:53:00,
2013-03-19 19:08:00,30.6,18.0,29.91,NW,311,5.0,-999.0,59,-99.99,,,0.00,weatherlink.com 1.10,2013-03-19 23:08:00,
2013-03-19 19:23:00,30.0,18.0,29.92,WNW,284,6.0,-999.0,61,-99.99,,,0.00,weatherlink.com 1.10,2013-03-19 23:23:00,
2013-03-19 19:38:00,29.6,18.0,29.92,NW,311,5.0,-999.0,63,-99.99,,,0.00,weatherlink.com 1.10,2013-03-19 23:38:00,
2013-03-19 19:53:00,29.3,18.0,29.92,SW,236,5.0,-999.0,63,-99.99,,,0.00,weatherlink.com 1.10,2013-03-19 23:53:00,
2013-03-19 20:08:00,29.2,18.0,29.93,West,269,2.0,-999.0,63,-99.99,,,0.00,weatherlink.com 1.10,2013-03-20 00:08:00,
2013-03-19 20:23:00,29.1,18.0,29.93,WNW,297,2.0,-999.0,64,-99.99,,,0.00,weatherlink.com 1.10,2013-03-20 00:23:00,
2013-03-19 20:38:00,29.1,18.0,29.94,WSW,257,4.0,-999.0,63,-99.99,,,0.00,weatherlink.com 1.10,2013-03-20 00:38:00,
2013-03-19 20:53:00,29.0,18.0,29.94,WNW,297,3.0,-999.0,63,-99.99,,,0.00,weatherlink.com 1.10,2013-03-20 00:53:00,
2013-03-19 21:08:00,28.9,18.0,29.95,NW,307,2.0,-999.0,63,-99.99,,,0.00,weatherlink.com 1.10,2013-03-20 01:08:00,
2013-03-19 21:23:00,28.6,18.0,29.95,NW,311,4.0,-999.0,64,-99.99,,,0.00,weatherlink.com 1.10,2013-03-20 01:23:00,
2013-03-19 21:38:00,28.4,18.0,29.96,NW,305,2.0,-999.0,64,-99.99,,,0.00,weatherlink.com 1.10,2013-03-20 01:38:00,
2013-03-19 21:53:00,28.3,17.0,29.96,WNW,292,3.0,-999.0,64,-99.99,,,0.00,weatherlink.com 1.10,2013-03-20 01:53:00,
2013-03-19 22:08:00,28.3,17.0,29.96,WNW,284,2.0,-999.0,64,-99.99,,,0.00,weatherlink.com 1.10,2013-03-20 02:08:00,
2013-03-19 22:23:00,28.1,18.0,29.96,NW,317,4.0,-999.0,65,-99.99,,,0.00,weatherlink.com 1.10,2013-03-20 02:23:00,
2013-03-19 22:38:00,28.1,17.0,29.96,WNW,302,1.0,-999.0,64,-99.99,,,0.00,weatherlink.com 1.10,2013-03-20 02:38:00,
2013-03-19 22:53:00,27.9,17.0,29.96,NW,307,3.0,-999.0,65,-99.99,,,0.00,weatherlink.com 1.10,2013-03-20 02:53:00,
2013-03-19 23:08:00,27.7,18.0,29.96,WNW,297,3.0,-999.0,66,-99.99,,,0.00,weatherlink.com 1.10,2013-03-20 03:08:00,
2013-03-19 23:23:00,27.7,18.0,29.96,West,262,2.0,-999.0,66,-99.99,,,0.00,weatherlink.com 1.10,2013-03-20 03:23:00,
2013-03-19 23:38:00,27.5,17.0,29.96,WNW,295,0.0,-999.0,66,-99.99,,,0.00,weatherlink.com 1.10,2013-03-20 03:38:00,
2013-03-19 23:53:00,27.4,18.0,29.96,NW,313,4.0,-999.0,67,-99.99,,,0.00,weatherlink.com 1.10,2013-03-20 03:53:00,